Time;durP1;ratioP1;P1;durP2;ratioP2;P2;SDS_P1;SDS_P2;PMS_P1;PMS_P2;Temp;Humidity;BMP_temperature;BMP_pressure;BME280_temperature;BME280_humidity;BME280_pressure;Samples;Min_cycle;Max_cycle;Signal;HPM_P1;HPM_P2
2023/01/27 00:00:40;;;;;;;1.92;1.20;;;;;;;20.61;23.95;99071.63;5025726;28;20104;-56
2023/01/27 00:03:05;;;;;;;2.00;1.35;;;;;;;20.61;23.79;99074.41;5018307;28;20025;-64
2023/01/27 00:05:31;;;;;;;2.03;1.30;;;;;;;20.60;23.86;99072.00;5017828;28;20164;-63
2023/01/27 00:07:59;;;;;;;1.80;1.20;;;;;;;20.60;24.09;99072.81;5020723;28;20029;-56
2023/01/27 00:10:26;;;;;;;2.10;1.27;;;;;;;20.59;23.90;99062.06;5021333;28;20164;-64
2023/01/27 00:15:37;;;;;;;1.98;1.35;;;;;;;20.58;24.03;99072.38;5013620;28;20039;-56
2023/01/27 00:18:03;;;;;;;2.30;1.50;;;;;;;20.59;24.03;99064.84;5022714;28;20025;-64
2023/01/27 00:26:07;;;;;;;1.83;1.25;;;;;;;20.59;24.03;99074.00;5031924;28;20030;-64
2023/01/27 00:28:34;;;;;;;1.75;1.20;;;;;;;20.58;24.05;99074.38;5013903;28;20105;-64
2023/01/27 00:30:59;;;;;;;2.10;1.40;;;;;;;20.58;23.94;99071.59;5020823;28;20529;-64
2023/01/27 00:33:26;;;;;;;2.72;1.73;;;;;;;20.57;24.07;99073.56;5026479;28;20064;-64
2023/01/27 00:36:07;;;;;;;2.55;1.60;;;;;;;20.57;24.00;99075.53;5022393;28;20037;-64
2023/01/27 00:38:40;;;;;;;2.10;1.40;;;;;;;20.58;24.11;99079.94;5013067;28;20014;-64
2023/01/27 00:41:14;;;;;;;2.17;1.40;;;;;;;20.58;23.87;99079.94;5024478;28;20032;-56
2023/01/27 00:43:40;;;;;;;2.17;1.40;;;;;;;20.57;23.89;99084.69;5014934;28;20021;-56
2023/01/27 00:46:06;;;;;;;2.40;1.48;;;;;;;20.57;24.06;99083.88;5020734;28;20032;-58
2023/01/27 00:48:32;;;;;;;1.80;1.33;;;;;;;20.57;24.14;99078.31;5017607;28;20022;-56
2023/01/27 00:50:57;;;;;;;2.17;1.40;;;;;;;20.57;24.15;99078.31;5028390;28;20033;-56
2023/01/27 00:53:23;;;;;;;1.90;1.30;;;;;;;20.56;23.93;99071.16;5025366;28;20025;-64
2023/01/27 00:55:48;;;;;;;2.20;1.58;;;;;;;20.56;23.84;99083.06;5020161;28;20064;-63
2023/01/27 00:58:14;;;;;;;2.25;1.58;;;;;;;20.55;24.08;99070.34;5015852;28;20513;-64
2023/01/27 01:00:40;;;;;;;1.98;1.38;;;;;;;20.55;23.85;99075.91;5013448;28;20383;-63
2023/01/27 01:03:05;;;;;;;2.30;1.60;;;;;;;20.55;24.07;99069.56;5017458;28;20065;-64
2023/01/27 01:05:31;;;;;;;2.33;1.58;;;;;;;20.55;23.95;99075.13;5056988;28;20032;-64
2023/01/27 01:07:56;;;;;;;2.17;1.52;;;;;;;20.55;24.12;99069.56;5022900;28;20029;-64
2023/01/27 01:10:21;;;;;;;2.05;1.40;;;;;;;20.54;23.99;99059.63;5018534;28;20048;-56
2023/01/27 01:12:47;;;;;;;2.15;1.40;;;;;;;20.52;23.83;99064.78;5019768;28;20400;-56
2023/01/27 01:15:13;;;;;;;2.08;1.42;;;;;;;20.55;23.97;99069.56;5014257;28;20018;-64
2023/01/27 01:17:38;;;;;;;2.22;1.52;;;;;;;20.54;24.05;99065.19;5021982;28;20037;-56
2023/01/27 01:20:04;;;;;;;1.98;1.45;;;;;;;20.53;24.11;99066.38;5022151;28;20428;-56
2023/01/27 01:22:30;;;;;;;1.95;1.30;;;;;;;20.52;24.18;99060.03;5016416;28;20040;-56
2023/01/27 01:24:55;;;;;;;1.92;1.40;;;;;;;20.53;23.94;99060.81;5024278;28;20029;-63
2023/01/27 01:27:21;;;;;;;1.98;1.38;;;;;;;20.53;23.96;99064.41;5017874;28;20058;-56
2023/01/27 01:29:47;;;;;;;2.47;1.55;;;;;;;20.53;24.11;99060.81;5019140;28;20048;-56
2023/01/27 01:32:12;;;;;;;2.47;1.70;;;;;;;20.53;24.14;99058.03;5012676;28;20034;-64
2023/01/27 01:34:38;;;;;;;2.45;1.70;;;;;;;20.52;24.12;99059.22;5023622;28;20033;-64
2023/01/27 01:37:04;;;;;;;2.40;1.67;;;;;;;20.53;23.94;99066.38;5027228;28;20029;-56
2023/01/27 01:39:30;;;;;;;2.33;1.60;;;;;;;20.52;24.07;99062.00;5017564;28;20040;-54
2023/01/27 01:41:56;;;;;;;2.25;1.55;;;;;;;20.51;24.04;99063.19;5021706;28;20033;-56
2023/01/27 01:44:25;;;;;;;2.42;1.60;;;;;;;20.51;24.03;99058.44;5015799;28;20034;-55
2023/01/27 01:46:50;;;;;;;2.13;1.50;;;;;;;20.51;24.11;99057.63;5022903;28;20038;-63
2023/01/27 01:49:19;;;;;;;2.50;1.60;;;;;;;20.51;24.06;99052.06;5012142;28;20026;-56
2023/01/27 01:51:51;;;;;;;1.98;1.33;;;;;;;20.51;24.01;99052.06;5016665;28;20496;-56
2023/01/27 01:54:22;;;;;;;2.10;1.50;;;;;;;20.51;24.07;99054.84;5017238;28;20394;-56
2023/01/27 01:56:56;;;;;;;2.42;1.45;;;;;;;20.48;23.84;99058.38;5013410;28;20025;-56
2023/01/27 01:59:35;;;;;;;2.45;1.67;;;;;;;20.49;24.12;99046.06;5014289;28;20026;-64
2023/01/27 02:02:04;;;;;;;2.30;1.67;;;;;;;20.49;24.04;99040.53;5027930;28;20510;-63
2023/01/27 02:04:36;;;;;;;2.53;1.70;;;;;;;20.47;24.19;99042.91;5016357;28;20160;-63
2023/01/27 02:07:08;;;;;;;2.43;1.60;;;;;;;20.50;24.06;99039.34;5015258;28;20495;-56
2023/01/27 02:09:35;;;;;;;2.10;1.45;;;;;;;20.49;24.16;99046.88;5011667;28;20030;-56
2023/01/27 02:12:00;;;;;;;2.20;1.45;;;;;;;20.49;24.03;99040.53;5015509;28;20034;-64
2023/01/27 02:14:26;;;;;;;1.90;1.40;;;;;;;20.48;24.18;99039.72;5028669;28;20028;-56
2023/01/27 02:16:51;;;;;;;2.20;1.55;;;;;;;20.46;24.19;99039.31;5012473;28;20449;-64
2023/01/27 02:19:38;;;;;;;2.30;1.50;;;;;;;20.47;24.17;99031.78;5020977;28;20461;-63
2023/01/27 02:22:07;;;;;;;2.53;1.67;;;;;;;20.48;24.08;99034.16;5024980;28;20541;-56
2023/01/27 02:24:41;;;;;;;2.28;1.50;;;;;;;20.47;24.03;99031.78;5011842;28;20076;-56
2023/01/27 02:27:06;;;;;;;2.10;1.30;;;;;;;20.48;24.19;99036.94;5024034;28;20053;-55
2023/01/27 02:29:32;;;;;;;1.70;1.20;;;;;;;20.45;23.99;99032.16;5011122;28;20029;-56
2023/01/27 02:31:57;;;;;;;2.05;1.48;;;;;;;20.46;24.20;99033.75;5012384;28;20026;-56
2023/01/27 02:34:29;;;;;;;2.55;1.60;;;;;;;20.46;23.91;99030.19;5011905;28;20137;-64
2023/01/27 02:36:59;;;;;;;2.60;1.65;;;;;;;20.46;24.05;99030.19;5013550;28;20509;-63
2023/01/27 02:39:32;;;;;;;2.00;1.40;;;;;;;20.45;24.03;99034.16;5012304;28;20068;-63
2023/01/27 02:42:00;;;;;;;2.40;1.60;;;;;;;20.46;23.83;99028.22;5017851;28;20088;-63
2023/01/27 02:44:25;;;;;;;2.17;1.52;;;;;;;20.46;24.20;99025.44;5017247;28;20088;-63
2023/01/27 02:46:51;;;;;;;2.20;1.45;;;;;;;20.46;24.13;99022.66;5011172;28;20459;-56
2023/01/27 02:49:16;;;;;;;2.60;1.67;;;;;;;20.46;24.25;99016.28;5030168;28;20029;-62
2023/01/27 02:51:42;;;;;;;2.03;1.40;;;;;;;20.46;24.11;99013.53;5016118;28;20030;-56
2023/01/27 02:54:07;;;;;;;2.00;1.50;;;;;;;20.45;24.08;99011.94;5010716;28;20079;-56
2023/01/27 02:56:33;;;;;;;1.98;1.40;;;;;;;20.45;24.16;99007.16;5018728;28;20029;-56
2023/01/27 02:58:58;;;;;;;2.28;1.50;;;;;;;20.47;24.31;99012.34;5025574;28;20097;-63
2023/01/27 03:01:24;;;;;;;2.20;1.50;;;;;;;20.44;24.19;99002.78;5012266;28;20119;-64
2023/01/27 03:03:50;;;;;;;1.88;1.30;;;;;;;20.45;24.25;99004.38;5012270;28;20104;-55
2023/01/27 03:06:16;;;;;;;2.53;1.50;;;;;;;20.46;24.22;99002.41;5023443;28;20069;-56
2023/01/27 03:08:42;;;;;;;1.92;1.30;;;;;;;20.45;24.06;99000.81;5017779;28;20022;-56
2023/01/27 03:11:09;;;;;;;1.92;1.30;;;;;;;20.45;23.95;99003.59;5017771;28;20022;-62
2023/01/27 03:13:36;;;;;;;2.22;1.45;;;;;;;20.45;24.13;98998.03;5015774;28;20026;-62
2023/01/27 03:18:50;;;;;;;2.40;1.50;;;;;;;20.44;24.30;98988.91;5023521;28;20084;-56
2023/01/27 03:21:16;;;;;;;2.40;1.50;;;;;;;20.42;24.31;98985.66;5015544;28;20032;-62
2023/01/27 03:23:44;;;;;;;2.30;1.40;;;;;;;20.43;24.20;98995.63;5019455;28;20562;-56
2023/01/27 03:26:10;;;;;;;1.90;1.20;;;;;;;20.43;24.13;98986.44;5014528;28;20056;-56
2023/01/27 03:28:36;;;;;;;2.33;1.55;;;;;;;20.42;24.20;98988.44;5042083;28;20021;-63
2023/01/27 03:31:04;;;;;;;2.30;1.40;;;;;;;20.41;23.96;98994.38;5043118;28;20029;-62
2023/01/27 03:33:30;;;;;;;2.30;1.30;;;;;;;20.42;24.23;98995.97;5038815;28;20104;-62
2023/01/27 03:46:57;;;;;;;2.03;1.40;;;;;;;20.41;24.10;98991.59;5043850;28;20029;-55
2023/01/27 03:49:23;;;;;;;2.30;1.48;;;;;;;20.40;24.22;98993.59;5036061;28;20020;-62
2023/01/27 03:51:48;;;;;;;2.35;1.60;;;;;;;20.39;24.25;98992.00;5034780;28;20114;-63
2023/01/27 03:54:14;;;;;;;2.13;1.40;;;;;;;20.39;24.37;98985.63;5043367;28;20451;-55
2023/01/27 03:56:39;;;;;;;2.00;1.30;;;;;;;20.39;24.04;98985.63;5052173;28;20048;-63
2023/01/27 03:59:05;;;;;;;2.45;1.50;;;;;;;20.37;24.25;98974.91;5042063;28;20389;-56
2023/01/27 04:01:30;;;;;;;2.28;1.50;;;;;;;20.39;24.21;98982.88;5041115;28;20389;-63
2023/01/27 04:06:59;;;;;;;2.25;1.50;;;;;;;20.38;24.06;98984.03;5048682;28;20033;-63
2023/01/27 04:09:32;;;;;;;2.67;2.00;;;;;;;20.38;24.16;98982.06;5033294;28;20112;-56
2023/01/27 04:11:59;;;;;;;2.47;1.75;;;;;;;20.37;23.95;98968.56;5032747;28;20503;-55
2023/01/27 04:14:33;;;;;;;2.20;1.45;;;;;;;20.35;24.09;98975.28;5045278;28;20029;-62
2023/01/27 04:17:02;;;;;;;2.15;1.40;;;;;;;20.35;24.07;98978.06;5050406;28;20021;-62
2023/01/27 04:19:28;;;;;;;2.10;1.52;;;;;;;20.34;24.07;98978.44;5041081;28;20120;-62
2023/01/27 04:21:55;;;;;;;2.00;1.40;;;;;;;20.34;24.29;98982.00;5033972;28;20109;-62
2023/01/27 04:24:21;;;;;;;2.10;1.40;;;;;;;20.32;24.22;98987.16;5032260;28;20041;-62
2023/01/27 04:26:52;;;;;;;2.35;1.55;;;;;;;20.32;24.06;98984.38;5042387;28;20505;-55
2023/01/27 04:29:17;;;;;;;2.10;1.50;;;;;;;20.32;24.23;98978.84;5035087;28;20481;-62
2023/01/27 04:31:43;;;;;;;2.63;1.63;;;;;;;20.31;24.32;98979.22;5037622;28;20036;-53
2023/01/27 04:34:10;;;;;;;2.30;1.52;;;;;;;20.32;24.21;98978.03;5035138;28;20076;-62
2023/01/27 04:36:35;;;;;;;2.63;1.70;;;;;;;20.31;23.85;98982.78;5047701;28;20032;-55
2023/01/27 04:39:01;;;;;;;1.60;1.20;;;;;;;20.31;24.06;98982.78;5039746;28;20029;-62
2023/01/27 04:41:26;;;;;;;2.10;1.40;;;;;;;20.31;24.02;98977.25;5049518;28;20496;-62
2023/01/27 04:43:52;;;;;;;2.28;1.48;;;;;;;20.29;24.11;98971.28;5033623;28;20028;-62
2023/01/27 04:46:18;;;;;;;1.73;1.20;;;;;;;20.30;24.21;98974.84;5046668;28;20035;-62
2023/01/27 04:48:43;;;;;;;2.17;1.48;;;;;;;20.29;24.10;98974.06;5041771;28;20555;-62
2023/01/27 04:51:08;;;;;;;2.00;1.33;;;;;;;20.29;24.17;98976.81;5036615;28;20052;-55
2023/01/27 04:53:34;;;;;;;2.40;1.60;;;;;;;20.31;24.16;98982.00;5041354;28;20067;-61
2023/01/27 04:56:03;;;;;;;2.40;1.70;;;;;;;20.29;24.16;98978.81;5043367;28;20037;-54
2023/01/27 04:58:28;;;;;;;2.25;1.50;;;;;;;20.29;24.02;98976.81;5039578;28;20028;-55
2023/01/27 05:00:53;;;;;;;2.22;1.55;;;;;;;20.28;24.06;98980.75;5044731;28;20113;-55
2023/01/27 05:03:19;;;;;;;2.28;1.48;;;;;;;20.27;24.26;98973.63;5035684;28;20068;-55
2023/01/27 05:05:44;;;;;;;2.13;1.40;;;;;;;20.28;24.13;98977.97;5040418;28;20095;-62
2023/01/27 05:08:10;;;;;;;2.50;1.63;;;;;;;20.27;24.19;98976.38;5032890;28;20043;-62
2023/01/27 05:10:36;;;;;;;2.20;1.60;;;;;;;20.27;23.95;98976.38;5035982;28;20057;-62
2023/01/27 05:13:01;;;;;;;1.88;1.35;;;;;;;20.27;24.29;98975.59;5041123;28;20025;-62
2023/01/27 05:15:28;;;;;;;2.92;1.83;;;;;;;20.26;24.21;98974.78;5035096;28;20017;-60
2023/01/27 05:17:53;;;;;;;2.42;1.65;;;;;;;20.24;24.14;98970.81;5039669;28;20476;-55
2023/01/27 05:20:19;;;;;;;2.35;1.48;;;;;;;20.24;24.02;98977.16;5040579;28;20529;-62
2023/01/27 05:22:45;;;;;;;2.50;1.75;;;;;;;20.26;24.29;98979.56;5043669;28;20097;-62
2023/01/27 05:25:10;;;;;;;2.40;1.70;;;;;;;20.25;24.10;98978.75;5043786;28;20065;-62
2023/01/27 05:27:36;;;;;;;2.40;1.40;;;;;;;20.25;24.08;98977.97;5038289;28;20067;-55
2023/01/27 05:30:01;;;;;;;2.15;1.48;;;;;;;20.24;24.06;98977.16;5049156;28;20031;-55
2023/01/27 05:32:27;;;;;;;2.40;1.65;;;;;;;20.23;24.32;98975.56;5038003;28;20031;-61
2023/01/27 05:34:52;;;;;;;2.53;1.63;;;;;;;20.23;24.29;98974.78;5047224;28;20464;-62
2023/01/27 05:37:18;;;;;;;2.50;1.75;;;;;;;20.24;24.32;98987.47;5034464;28;20366;-62
2023/01/27 05:39:43;;;;;;;2.30;1.50;;;;;;;20.23;24.20;98983.09;5050852;28;20124;-54
2023/01/27 05:42:09;;;;;;;2.40;1.70;;;;;;;20.24;24.10;98984.69;5040435;28;20082;-56
2023/01/27 05:44:34;;;;;;;2.65;1.60;;;;;;;20.23;24.23;98988.66;5041849;28;20430;-63
2023/01/27 05:47:00;;;;;;;2.20;1.48;;;;;;;20.22;24.11;98989.84;5041097;28;20038;-56
2023/01/27 05:49:25;;;;;;;2.28;1.55;;;;;;;20.22;24.19;98990.66;5044397;28;20036;-64
2023/01/27 05:51:51;;;;;;;2.30;1.50;;;;;;;20.22;24.13;98993.41;5042387;28;20029;-55
2023/01/27 05:54:16;;;;;;;2.25;1.60;;;;;;;20.23;24.22;98997.00;5043042;28;20163;-55
2023/01/27 05:56:41;;;;;;;2.15;1.50;;;;;;;20.21;24.23;98989.03;5032782;28;20025;-56
2023/01/27 05:59:09;;;;;;;2.20;1.40;;;;;;;20.20;24.22;98992.19;5042993;28;20027;-56
2023/01/27 06:01:36;;;;;;;2.72;1.70;;;;;;;20.20;24.07;98986.63;5043267;28;20044;-55
2023/01/27 06:04:02;;;;;;;2.20;1.42;;;;;;;20.20;24.08;98992.97;5043870;28;20024;-62
2023/01/27 06:06:30;;;;;;;2.08;1.38;;;;;;;20.22;24.22;98992.63;5036476;28;20029;-62
2023/01/27 06:08:55;;;;;;;2.25;1.50;;;;;;;20.23;24.20;98991.44;5030725;28;20017;-54
2023/01/27 06:11:23;;;;;;;2.47;1.55;;;;;;;20.28;24.26;98993.84;5032346;28;20041;-54
2023/01/27 06:13:49;;;;;;;1.80;1.20;;;;;;;20.31;24.11;98999.47;5031176;28;20060;-55
2023/01/27 06:16:16;;;;;;;2.20;1.50;;;;;;;20.32;23.89;98989.16;5032176;28;20033;-55
2023/01/27 06:18:43;;;;;;;1.80;1.27;;;;;;;20.33;24.05;99001.84;5047792;28;20485;-54
2023/01/27 06:21:10;;;;;;;1.75;1.20;;;;;;;20.33;24.23;98994.31;5029614;28;20075;-62
2023/01/27 06:23:36;;;;;;;2.33;1.58;;;;;;;20.32;23.94;98995.50;5049691;28;20055;-55
2023/01/27 06:26:07;;;;;;;2.25;1.50;;;;;;;20.32;23.92;99003.03;5037930;28;20029;-61
2023/01/27 06:28:33;;;;;;;2.08;1.38;;;;;;;20.31;24.05;99001.44;5040679;28;20116;-62
2023/01/27 06:31:09;;;;;;;2.30;1.60;;;;;;;20.30;24.07;99000.63;5038159;28;20128;-62
2023/01/27 06:33:35;;;;;;;2.20;1.42;;;;;;;20.32;23.97;98994.69;5029936;28;20033;-55
2023/01/27 06:36:04;;;;;;;1.65;1.20;;;;;;;20.29;24.07;98998.25;5040565;28;20032;-54
2023/01/27 06:38:29;;;;;;;2.50;1.60;;;;;;;20.32;23.82;98992.72;5036633;28;20071;-55
2023/01/27 06:40:54;;;;;;;2.47;1.70;;;;;;;20.34;23.93;98989.56;5036428;28;20029;-55
2023/01/27 06:43:20;;;;;;;1.98;1.38;;;;;;;20.35;24.06;98996.69;5046293;28;20034;-61
2023/01/27 06:45:51;;;;;;;1.83;1.33;;;;;;;20.35;23.92;98991.16;5042047;28;20032;-62
2023/01/27 06:48:16;;;;;;;1.85;1.30;;;;;;;20.35;24.07;98996.69;5032694;28;20069;-62
2023/01/27 06:50:42;;;;;;;2.38;1.40;;;;;;;20.38;23.92;98997.94;5032612;28;20063;-62
2023/01/27 06:53:07;;;;;;;1.85;1.27;;;;;;;20.38;23.96;98995.16;5041573;28;20017;-62
2023/01/27 06:55:40;;;;;;;2.03;1.38;;;;;;;20.38;24.14;98998.72;5044209;28;20024;-62
2023/01/27 06:58:06;;;;;;;1.80;1.30;;;;;;;20.40;23.85;98998.34;5029168;28;20366;-62
2023/01/27 07:00:31;;;;;;;2.10;1.50;;;;;;;20.39;23.87;98997.53;5029235;28;20108;-62
2023/01/27 07:02:57;;;;;;;2.03;1.40;;;;;;;20.41;23.85;99003.50;5047685;28;20475;-62
2023/01/27 07:05:22;;;;;;;2.00;1.33;;;;;;;20.42;23.87;99001.53;5038085;28;20052;-62
2023/01/27 07:07:48;;;;;;;1.98;1.33;;;;;;;20.41;23.79;98999.94;5037044;28;20025;-61
2023/01/27 07:10:13;;;;;;;2.30;1.60;;;;;;;20.42;23.84;99004.31;5032478;28;20056;-54
2023/01/27 07:12:39;;;;;;;2.08;1.40;;;;;;;20.44;23.66;99001.97;5031093;28;20079;-55
2023/01/27 07:15:06;;;;;;;2.25;1.50;;;;;;;20.42;23.67;99005.09;5033130;28;20013;-62
2023/01/27 07:17:32;;;;;;;2.03;1.27;;;;;;;20.42;23.77;99010.66;5045685;28;20068;-62
2023/01/27 07:19:58;;;;;;;1.58;1.13;;;;;;;20.44;23.79;99008.34;5030343;28;20063;-55
2023/01/27 07:22:23;;;;;;;1.90;1.20;;;;;;;20.46;23.89;99013.53;5033610;28;20037;-62
2023/01/27 07:24:48;;;;;;;2.40;1.50;;;;;;;20.44;23.80;99016.69;5032527;28;20446;-62
2023/01/27 07:27:14;;;;;;;2.05;1.50;;;;;;;20.45;23.85;99020.25;5029910;28;20042;-62
2023/01/27 07:29:39;;;;;;;1.92;1.50;;;;;;;20.45;23.77;99026.59;5036072;28;20041;-62
2023/01/27 07:32:06;;;;;;;2.05;1.30;;;;;;;20.46;23.79;99025.44;5029607;28;20029;-62
2023/01/27 07:34:31;;;;;;;2.03;1.38;;;;;;;20.47;23.52;99029.00;5029202;28;20418;-62
2023/01/27 07:36:57;;;;;;;2.10;1.50;;;;;;;20.47;23.66;99026.22;5043223;28;20025;-54
2023/01/27 07:39:22;;;;;;;1.90;1.38;;;;;;;20.46;23.77;99022.66;5029469;28;20082;-55
2023/01/27 07:41:48;;;;;;;2.30;1.48;;;;;;;20.46;23.69;99017.09;5046915;28;20104;-62
2023/01/27 07:44:14;;;;;;;2.40;1.70;;;;;;;20.52;23.74;99026.69;5037249;28;20116;-63
2023/01/27 07:46:39;;;;;;;2.17;1.40;;;;;;;20.56;23.64;99021.16;5035977;28;20092;-55
2023/01/27 07:49:05;;;;;;;2.35;1.65;;;;;;;20.58;23.77;99024.34;5027714;28;20044;-63
2023/01/27 07:51:30;;;;;;;2.30;1.40;;;;;;;20.53;24.19;99021.91;5034014;28;20042;-53
2023/01/27 07:53:56;;;;;;;2.70;1.48;;;;;;;20.51;24.43;99035.41;5037756;28;20060;-62
2023/01/27 07:56:21;;;;;;;3.90;1.40;;;;;;;20.49;24.13;99032.97;5044887;28;20029;-53
2023/01/27 07:58:47;;;;;;;2.35;1.50;;;;;;;20.48;24.47;99030.59;5047060;28;20052;-51
2023/01/27 08:01:12;;;;;;;2.30;1.50;;;;;;;20.47;24.86;99034.56;5063115;28;20017;-65
2023/01/27 08:03:38;;;;;;;4.18;1.60;;;;;;;20.44;25.18;99032.53;5040228;28;20020;-48
2023/01/27 08:06:05;;;;;;;4.75;1.70;;;;;;;20.43;25.35;99034.50;5042500;28;20545;-66
2023/01/27 08:08:31;;;;;;;2.65;1.65;;;;;;;20.44;25.47;99041.69;5037052;28;20021;-48
2023/01/27 08:11:07;;;;;;;3.10;1.70;;;;;;;20.48;25.41;99038.94;5033637;28;20055;-63
2023/01/27 08:13:34;;;;;;;3.85;1.80;;;;;;;20.52;25.34;99040.56;5042492;28;20048;-62
2023/01/27 08:16:01;;;;;;;2.55;1.60;;;;;;;20.55;25.44;99039.78;5042801;28;20492;-48
2023/01/27 08:18:28;;;;;;;2.40;1.65;;;;;;;20.59;25.93;99042.63;5040114;28;20025;-49
2023/01/27 08:20:58;;;;;;;3.72;1.52;;;;;;;20.61;26.52;99051.38;5043902;28;20033;-59
2023/01/27 08:23:24;;;;;;;3.88;1.73;;;;;;;20.63;26.46;99037.88;5041565;28;20036;-46
2023/01/27 08:25:51;;;;;;;2.70;1.58;;;;;;;20.64;26.37;99041.47;5037442;28;20025;-46
2023/01/27 08:28:18;;;;;;;3.00;1.70;;;;;;;20.68;26.67;99043.09;5032438;28;20041;-60
2023/01/27 08:30:44;;;;;;;4.43;1.77;;;;;;;20.72;26.65;99040.38;5036709;28;20040;-46
2023/01/27 08:33:09;;;;;;;2.10;1.50;;;;;;;20.75;27.42;99051.50;5037439;28;20716;-64
2023/01/27 08:35:37;;;;;;;2.33;1.50;;;;;;;20.79;26.98;99055.13;5035292;28;20100;-47
2023/01/27 08:38:03;;;;;;;3.00;1.80;;;;;;;20.85;27.20;99048.00;5025325;28;20029;-47
2023/01/27 08:40:29;;;;;;;2.70;1.45;;;;;;;20.90;26.98;99052.44;5023067;28;20477;-68
2023/01/27 08:42:54;;;;;;;3.17;1.70;;;;;;;20.98;26.62;99054.09;5019699;28;20037;-69
2023/01/27 08:45:19;;;;;;;4.03;1.42;;;;;;;21.04;26.83;99046.19;5026982;28;20854;-66
2023/01/27 08:47:45;;;;;;;3.38;1.83;;;;;;;21.11;26.38;99047.03;5020443;28;20084;-68
2023/01/27 08:50:11;;;;;;;2.13;1.50;;;;;;;21.13;26.75;99053.00;5024103;28;20484;-76
2023/01/27 08:52:37;;;;;;;2.60;1.90;;;;;;;21.14;26.58;99056.59;5024053;28;20029;-66
2023/01/27 08:55:02;;;;;;;2.90;1.80;;;;;;;21.18;26.38;99054.63;5026255;28;20116;-43
2023/01/27 08:57:31;;;;;;;2.35;1.52;;;;;;;21.18;26.55;99054.63;5020767;28;20033;-44
2023/01/27 08:59:57;;;;;;;2.80;1.60;;;;;;;21.19;26.02;99049.88;5025069;28;20925;-68
2023/01/27 09:02:23;;;;;;;3.42;1.80;;;;;;;21.17;26.46;99053.03;5018440;28;20037;-70
2023/01/27 09:04:50;;;;;;;2.75;1.67;;;;;;;21.19;26.01;99055.44;5026825;28;20028;-68
2023/01/27 09:07:16;;;;;;;7.63;1.70;;;;;;;21.18;26.37;99060.19;5025792;28;20029;-73
2023/01/27 09:09:45;;;;;;;3.25;1.50;;;;;;;21.15;26.31;99052.66;5019597;28;20045;-69
2023/01/27 09:12:11;;;;;;;4.13;1.55;;;;;;;21.14;26.22;99060.16;5024086;28;20083;-47
2023/01/27 09:14:36;;;;;;;2.30;1.50;;;;;;;21.17;26.47;99058.63;5025300;28;20033;-48
2023/01/27 09:17:02;;;;;;;2.20;1.50;;;;;;;21.16;26.64;99059.81;5021517;28;20045;-56
2023/01/27 09:19:27;;;;;;;3.30;1.40;;;;;;;21.16;26.61;99062.59;5027418;28;20139;-45
2023/01/27 09:21:53;;;;;;;2.10;1.30;;;;;;;21.19;26.54;99063.78;5017444;28;20359;-44
2023/01/27 09:24:19;;;;;;;4.45;1.52;;;;;;;21.23;26.82;99067.41;5028654;28;20476;-72
2023/01/27 09:26:45;;;;;;;5.00;1.50;;;;;;;21.22;27.82;99066.59;5027635;28;20741;-44
2023/01/27 09:29:10;;;;;;;2.65;1.52;;;;;;;21.24;28.14;99067.00;5018985;28;20040;-44
2023/01/27 09:31:36;;;;;;;5.07;1.70;;;;;;;21.25;27.71;99063.03;5015249;28;20028;-45
2023/01/27 09:34:03;;;;;;;4.85;1.70;;;;;;;21.26;27.52;99058.28;5017011;28;20033;-44
2023/01/27 09:36:31;;;;;;;2.22;1.35;;;;;;;21.27;27.42;99066.22;5021882;28;20047;-45
2023/01/27 09:39:01;;;;;;;4.85;1.63;;;;;;;21.28;27.56;99051.16;5025594;28;20029;-44
2023/01/27 09:41:46;;;;;;;3.17;1.75;;;;;;;21.29;27.00;99058.34;5021397;28;20029;-49
2023/01/27 09:44:33;;;;;;;4.85;1.55;;;;;;;21.29;27.00;99058.34;5020137;28;20103;-68
2023/01/27 09:47:26;;;;;;;2.72;1.60;;;;;;;21.30;26.97;99068.28;5019031;28;20995;-68
2023/01/27 09:50:15;;;;;;;2.75;1.83;;;;;;;21.31;27.27;99069.88;5024567;28;20091;-44
2023/01/27 09:53:20;;;;;;;3.17;1.67;;;;;;;21.31;26.88;99064.31;5026553;28;20500;-45
2023/01/27 09:56:14;;;;;;;2.35;1.58;;;;;;;21.32;26.90;99068.69;5023171;28;20037;-64
2023/01/27 09:59:03;;;;;;;2.65;1.67;;;;;;;21.34;27.03;99068.28;5026824;28;20494;-67
2023/01/27 10:01:58;;;;;;;5.00;1.90;;;;;;;21.30;26.99;99070.25;5038289;28;20029;-45
2023/01/27 10:04:45;;;;;;;3.47;2.38;;;;;;;21.27;26.76;99068.22;5057742;28;20094;-45
2023/01/27 10:07:27;;;;;;;4.22;2.20;;;;;;;21.28;26.56;99076.19;5038650;28;20413;-45
2023/01/27 10:10:18;;;;;;;3.30;2.17;;;;;;;21.26;26.19;99072.19;5040662;28;20033;-70
2023/01/27 10:13:12;;;;;;;3.83;2.10;;;;;;;21.24;26.41;99074.56;5035663;28;20584;-70
2023/01/27 10:16:08;;;;;;;3.35;2.00;;;;;;;21.24;26.33;99077.34;5036836;28;20045;-68
2023/01/27 10:18:55;;;;;;;2.58;1.73;;;;;;;21.23;26.74;99078.53;5036321;28;20033;-48
2023/01/27 10:21:34;;;;;;;3.75;2.05;;;;;;;21.24;26.75;99078.13;5034574;28;20029;-47
2023/01/27 10:24:27;;;;;;;5.15;1.77;;;;;;;21.23;27.12;99079.31;5044198;28;20040;-67
2023/01/27 10:27:07;;;;;;;2.90;2.00;;;;;;;21.23;27.07;99076.53;5042807;28;20525;-45
2023/01/27 10:29:45;;;;;;;3.65;2.20;;;;;;;21.24;26.75;99089.25;5036027;28;20124;-46
2023/01/27 10:32:25;;;;;;;3.25;1.92;;;;;;;21.26;27.10;99086.88;5041452;28;20421;-62
2023/01/27 10:35:15;;;;;;;2.90;2.00;;;;;;;21.25;26.93;99081.72;5034033;28;20057;-46
2023/01/27 10:38:01;;;;;;;2.95;2.17;;;;;;;21.28;27.11;99080.97;5033811;28;20028;-45
2023/01/27 10:40:54;;;;;;;3.50;1.90;;;;;;;21.31;27.17;99086.56;5035265;28;20025;-47
2023/01/27 10:43:56;;;;;;;3.42;2.10;;;;;;;21.31;26.90;99086.56;5044863;28;20712;-45
2023/01/27 10:46:37;;;;;;;3.58;2.03;;;;;;;21.32;26.97;99085.38;5032926;28;20485;-64
2023/01/27 10:49:11;;;;;;;3.45;2.05;;;;;;;21.32;26.95;99082.59;5036309;28;20037;-44
2023/01/27 10:51:44;;;;;;;2.90;2.10;;;;;;;21.33;26.82;99084.19;5044796;28;20025;-45
2023/01/27 10:54:18;;;;;;;2.63;1.67;;;;;;;21.31;26.47;99086.56;5039380;28;20124;-45
2023/01/27 10:56:52;;;;;;;3.13;1.92;;;;;;;21.31;26.49;99086.56;5031391;28;20421;-45
2023/01/27 10:59:28;;;;;;;4.63;1.92;;;;;;;21.31;26.58;99078.22;5037167;28;20033;-44
2023/01/27 11:02:02;;;;;;;3.00;1.75;;;;;;;21.32;26.42;99079.81;5037667;28;20040;-61
2023/01/27 11:04:39;;;;;;;4.40;1.80;;;;;;;21.32;26.62;99076.22;5042943;28;20412;-47
2023/01/27 11:07:05;;;;;;;2.38;1.67;;;;;;;21.30;26.28;99082.19;5035888;28;20040;-63
2023/01/27 11:09:38;;;;;;;3.20;2.00;;;;;;;21.28;26.46;99083.75;5038733;28;20160;-47
2023/01/27 11:12:10;;;;;;;2.58;1.63;;;;;;;21.25;26.52;99090.06;5026692;28;20040;-46
2023/01/27 11:14:44;;;;;;;3.15;1.85;;;;;;;21.20;26.29;99090.41;5038060;28;20066;-45
2023/01/27 11:17:18;;;;;;;2.40;1.60;;;;;;;21.19;25.90;99086.03;5031932;28;20037;-66
2023/01/27 11:20:15;;;;;;;2.92;1.73;;;;;;;21.12;26.22;99086.78;5036447;28;20036;-66
2023/01/27 11:23:20;;;;;;;2.22;1.40;;;;;;;21.09;26.05;99079.22;5041474;28;20409;-48
2023/01/27 11:28:41;;;;;;;2.78;1.70;;;;;;;21.11;25.91;99088.75;5033830;28;20053;-66
2023/01/27 11:31:33;;;;;;;2.50;1.60;;;;;;;21.13;25.85;99091.94;5040591;28;20033;-48
2023/01/27 11:34:14;;;;;;;2.47;1.50;;;;;;;21.14;25.53;99095.53;5032118;28;20044;-48
2023/01/27 11:36:40;;;;;;;2.60;1.70;;;;;;;21.12;25.64;99093.13;5037319;28;20200;-49
2023/01/27 11:39:11;;;;;;;2.30;1.58;;;;;;;21.09;25.36;99093.91;5051431;28;20544;-48
2023/01/27 11:41:42;;;;;;;3.28;1.70;;;;;;;21.06;25.59;99091.09;5039955;28;20554;-65
2023/01/27 11:44:18;;;;;;;2.45;1.77;;;;;;;21.01;25.58;99081.13;5041949;28;20496;-47
2023/01/27 11:46:45;;;;;;;2.38;1.65;;;;;;;21.01;25.28;99083.13;5032730;28;20176;-48
2023/01/27 11:49:14;;;;;;;2.42;1.52;;;;;;;21.02;25.37;99091.06;5036683;28;20041;-47
2023/01/27 11:51:40;;;;;;;2.22;1.60;;;;;;;21.02;25.34;99079.94;5036022;28;20020;-65
2023/01/27 11:54:16;;;;;;;3.22;1.73;;;;;;;21.01;25.15;99075.56;5030153;28;20017;-45
2023/01/27 11:56:45;;;;;;;2.70;1.50;;;;;;;21.02;25.20;99077.16;5031803;28;20091;-65
2023/01/27 11:59:33;;;;;;;2.67;1.70;;;;;;;21.00;25.23;99073.94;5033339;28;20041;-50
2023/01/27 12:02:21;;;;;;;2.13;1.40;;;;;;;20.99;25.05;99072.34;5033285;28;20213;-49
2023/01/27 12:04:58;;;;;;;2.35;1.60;;;;;;;21.00;24.96;99062.81;5031096;28;20025;-65
2023/01/27 12:07:51;;;;;;;2.13;1.30;;;;;;;21.00;24.81;99053.69;5033063;28;20095;-48
2023/01/27 12:10:29;;;;;;;2.60;1.80;;;;;;;20.99;25.04;99052.09;5037094;28;20076;-46
2023/01/27 12:12:56;;;;;;;2.45;1.40;;;;;;;20.99;24.80;99055.66;5043319;28;20412;-47